createdAt,value
2023-01-03T00:01:13.914Z,0.60
2023-01-03T00:03:41.215Z,0.70
2023-01-03T00:06:30.245Z,0.65
2023-01-03T00:08:59.533Z,0.50
2023-01-03T00:11:48.038Z,0.40
2023-01-03T00:14:23.534Z,0.40
2023-01-03T00:16:55.895Z,0.60
2023-01-03T00:19:24.563Z,0.50
2023-01-03T00:21:52.277Z,0.38
2023-01-03T00:24:19.422Z,0.60
2023-01-03T00:26:46.629Z,0.40
2023-01-03T00:29:14.061Z,0.40
2023-01-03T00:31:41.549Z,0.40
2023-01-03T00:34:09.228Z,0.50
2023-01-03T00:36:37.372Z,0.47
2023-01-03T00:39:04.986Z,0.47
2023-01-03T00:41:32.042Z,0.60
2023-01-03T00:43:59.195Z,0.70
2023-01-03T00:46:26.363Z,0.60
2023-01-03T00:48:53.187Z,0.60
2023-01-03T00:51:26.357Z,0.80
2023-01-03T00:53:56.138Z,0.90
2023-01-03T00:56:26.462Z,0.88
2023-01-03T00:58:53.621Z,1.00
2023-01-03T01:01:28.849Z,1.42
2023-01-03T01:04:03.143Z,0.70
2023-01-03T01:06:35.019Z,0.90
2023-01-03T01:09:04.202Z,0.80
2023-01-03T01:11:31.480Z,0.88
2023-01-03T01:13:58.407Z,0.98
2023-01-03T01:16:32.169Z,0.77
2023-01-03T01:19:00.296Z,0.98
2023-01-03T01:21:31.565Z,0.80
2023-01-03T01:24:00.365Z,0.70
2023-01-03T01:26:27.902Z,0.80
2023-01-03T01:28:55.325Z,0.77
2023-01-03T01:31:25.771Z,0.80
2023-01-03T01:33:54.391Z,0.57
2023-01-03T01:36:23.536Z,0.80
2023-01-03T01:38:56.176Z,0.65
2023-01-03T01:41:42.647Z,0.68
2023-01-03T01:44:41.199Z,0.85
2023-01-03T01:47:15.091Z,0.90
2023-01-03T01:49:42.850Z,0.90
2023-01-03T01:52:10.656Z,0.90
2023-01-03T01:54:38.314Z,0.80
2023-01-03T01:57:05.072Z,0.88
2023-01-03T01:59:32.406Z,0.70
2023-01-03T02:01:59.279Z,0.75
2023-01-03T02:04:30.976Z,0.90
2023-01-03T02:06:58.827Z,0.77
2023-01-03T02:09:25.619Z,0.95
2023-01-03T02:12:40.236Z,0.60
2023-01-03T02:15:28.263Z,0.60
2023-01-03T02:18:22.583Z,1.00
2023-01-03T02:20:52.119Z,0.70
2023-01-03T02:24:11.289Z,0.70
2023-01-03T02:27:11.169Z,0.70
2023-01-03T02:29:43.548Z,0.63
2023-01-03T02:32:16.894Z,0.80
2023-01-03T02:35:08.156Z,0.90
2023-01-03T02:37:49.810Z,0.90
2023-01-03T02:41:01.013Z,0.88
2023-01-03T02:44:06.710Z,0.80
2023-01-03T02:46:42.722Z,0.52
2023-01-03T02:49:18.310Z,0.95
2023-01-03T02:51:53.232Z,0.80
2023-01-03T02:54:27.500Z,0.90
2023-01-03T02:57:14.848Z,1.20
2023-01-03T02:59:53.033Z,1.02
2023-01-03T03:02:24.092Z,1.10
2023-01-03T03:04:55.591Z,0.80
2023-01-03T03:07:29.348Z,0.95
2023-01-03T03:10:16.414Z,0.70
2023-01-03T03:13:04.527Z,0.85
2023-01-03T03:15:36.348Z,1.38
2023-01-03T03:18:09.514Z,1.20
2023-01-03T03:20:55.046Z,1.30
2023-01-03T03:23:44.612Z,1.08
2023-01-03T03:26:19.724Z,1.23
2023-01-03T03:28:50.613Z,1.60
2023-01-03T03:31:30.361Z,1.17
2023-01-03T03:34:13.105Z,1.10
2023-01-03T03:36:39.831Z,1.05
2023-01-03T03:39:28.754Z,1.15
2023-01-03T03:42:24.855Z,1.10
2023-01-03T03:45:02.949Z,1.10
2023-01-03T03:47:42.274Z,1.58
2023-01-03T03:50:19.620Z,1.75
2023-01-03T03:52:50.584Z,1.33
2023-01-03T03:55:22.645Z,1.73
2023-01-03T03:58:09.792Z,1.80
2023-01-03T04:00:39.921Z,1.60
2023-01-03T04:03:09.155Z,1.63
2023-01-03T04:05:44.846Z,1.77
2023-01-03T04:08:11.862Z,1.40
2023-01-03T04:10:38.754Z,1.52
2023-01-03T04:13:05.945Z,1.35
2023-01-03T04:15:32.699Z,1.40
2023-01-03T04:18:02.432Z,1.15
2023-01-03T04:20:29.592Z,1.60
2023-01-03T04:22:57.088Z,1.63
2023-01-03T04:25:24.204Z,1.52
2023-01-03T04:27:51.011Z,1.33
2023-01-03T04:30:18.153Z,1.60
2023-01-03T04:32:44.955Z,1.73
2023-01-03T04:35:11.776Z,2.00
2023-01-03T04:37:38.660Z,2.25
2023-01-03T04:40:06.011Z,1.63
2023-01-03T04:42:51.597Z,1.48
2023-01-03T04:45:18.385Z,1.63
2023-01-03T04:47:45.190Z,1.30
2023-01-03T04:50:12.083Z,1.35
2023-01-03T04:52:38.884Z,1.10
2023-01-03T04:55:06.202Z,1.20
2023-01-03T04:57:32.992Z,1.30
2023-01-03T04:59:59.700Z,1.60
2023-01-03T05:02:26.549Z,1.30
2023-01-03T05:04:53.383Z,1.45
2023-01-03T05:07:20.632Z,1.50
2023-01-03T05:09:47.457Z,1.73
2023-01-03T05:12:14.314Z,1.42
2023-01-03T05:14:41.660Z,1.50
2023-01-03T05:17:09.224Z,1.67
2023-01-03T05:19:55.979Z,1.40
2023-01-03T05:22:41.897Z,1.38
2023-01-03T05:25:29.329Z,1.63
2023-01-03T05:27:57.446Z,1.20
2023-01-03T05:30:24.653Z,1.45
2023-01-03T05:32:51.418Z,1.30
2023-01-03T05:35:18.597Z,1.55
2023-01-03T05:37:45.398Z,1.67
2023-01-03T05:40:12.701Z,1.63
2023-01-03T05:42:39.655Z,1.45
2023-01-03T05:45:07.090Z,1.63
2023-01-03T05:47:33.812Z,1.50
2023-01-03T05:50:00.758Z,1.55
2023-01-03T05:52:27.557Z,1.75
2023-01-03T05:54:54.365Z,1.60
2023-01-03T05:57:21.098Z,1.73
2023-01-03T05:59:47.873Z,1.27
2023-01-03T06:02:14.856Z,2.00
2023-01-03T06:04:41.889Z,1.40
2023-01-03T06:07:08.777Z,1.05
2023-01-03T06:09:35.566Z,1.10
2023-01-03T06:12:02.328Z,1.25
2023-01-03T06:14:29.140Z,1.00
2023-01-03T06:17:14.613Z,1.10
2023-01-03T06:19:41.495Z,1.10
2023-01-03T06:22:10.817Z,1.27
2023-01-03T06:24:38.081Z,1.40
2023-01-03T06:27:04.934Z,1.10
2023-01-03T06:29:31.899Z,0.80
2023-01-03T06:32:02.196Z,0.88
2023-01-03T06:34:31.988Z,1.05
2023-01-03T06:36:58.781Z,1.20
2023-01-03T06:39:25.592Z,1.17
2023-01-03T06:41:52.338Z,1.25
2023-01-03T06:44:19.207Z,1.20
2023-01-03T06:47:15.055Z,1.10
2023-01-03T06:50:00.638Z,0.90
2023-01-03T06:52:46.099Z,1.00
2023-01-03T06:55:13.003Z,1.40
2023-01-03T06:57:39.807Z,1.25
2023-01-03T07:00:07.117Z,1.10
2023-01-03T07:02:34.044Z,1.00
2023-01-03T07:05:00.881Z,1.05
2023-01-03T07:07:27.627Z,0.90
2023-01-03T07:09:54.412Z,0.95
2023-01-03T07:12:39.622Z,1.08
2023-01-03T07:15:07.018Z,0.80
2023-01-03T07:17:33.821Z,0.90
2023-01-03T07:20:00.647Z,0.70
2023-01-03T07:22:27.600Z,0.68
2023-01-03T07:24:54.396Z,0.75
2023-01-03T07:27:21.283Z,0.68
2023-01-03T07:29:48.223Z,0.70
2023-01-03T07:32:15.000Z,0.68
2023-01-03T07:34:41.751Z,0.80
2023-01-03T07:37:08.608Z,0.57
2023-01-03T07:39:35.383Z,0.60
2023-01-03T07:42:20.756Z,0.60
2023-01-03T07:44:47.523Z,0.50
2023-01-03T07:47:14.738Z,0.50
2023-01-03T07:49:41.527Z,0.80
2023-01-03T07:52:08.362Z,0.70
2023-01-03T07:54:35.468Z,0.38
2023-01-03T07:57:02.327Z,0.60
2023-01-03T07:59:29.160Z,0.70
2023-01-03T08:01:55.990Z,0.60
2023-01-03T08:04:23.045Z,0.60
2023-01-03T08:06:49.908Z,0.80
2023-01-03T08:09:35.272Z,0.70
2023-01-03T08:12:20.921Z,0.60
2023-01-03T08:14:47.702Z,0.70
2023-01-03T08:17:14.460Z,0.55
2023-01-03T08:19:45.451Z,0.40
2023-01-03T08:22:12.719Z,0.80
2023-01-03T08:24:39.763Z,0.40
2023-01-03T08:27:06.579Z,0.30
2023-01-03T08:29:33.406Z,0.45
2023-01-03T08:32:02.981Z,0.40
2023-01-03T08:34:36.338Z,0.45
2023-01-03T08:37:10.357Z,0.45
2023-01-03T08:39:43.995Z,0.50
2023-01-03T08:42:13.591Z,0.50
2023-01-03T08:44:41.571Z,0.77
2023-01-03T08:47:09.302Z,0.40
2023-01-03T08:49:36.830Z,0.60
2023-01-03T08:52:04.352Z,0.45
2023-01-03T08:54:31.363Z,0.50
2023-01-03T08:56:58.319Z,0.40
2023-01-03T08:59:25.120Z,0.50
2023-01-03T09:01:52.144Z,0.43
2023-01-03T09:04:19.089Z,0.55
2023-01-03T09:06:46.045Z,0.60
2023-01-03T09:09:12.893Z,0.50
2023-01-03T09:11:39.806Z,0.50
2023-01-03T09:14:09.271Z,0.40
2023-01-03T09:16:36.186Z,0.45
2023-01-03T09:19:03.154Z,0.57
2023-01-03T09:21:30.050Z,0.45
2023-01-03T09:23:58.683Z,0.50
2023-01-03T09:26:25.677Z,0.73
2023-01-03T09:28:52.709Z,0.60
2023-01-03T09:31:19.633Z,0.52
2023-01-03T09:33:46.526Z,0.47
2023-01-03T09:36:13.405Z,0.60
2023-01-03T09:38:40.385Z,0.60
2023-01-03T09:41:12.520Z,0.90
2023-01-03T09:43:46.109Z,0.70
2023-01-03T09:46:22.209Z,0.80
2023-01-03T09:48:49.852Z,0.80
2023-01-03T09:51:42.472Z,0.63
2023-01-03T09:54:50.891Z,0.80
2023-01-03T09:57:49.822Z,0.70
2023-01-03T10:00:45.390Z,0.50
2023-01-03T10:03:50.858Z,1.00
2023-01-03T10:07:06.128Z,0.90
2023-01-03T10:09:39.061Z,1.23
2023-01-03T10:12:33.543Z,1.05
2023-01-03T10:15:07.603Z,1.00
2023-01-03T10:18:12.143Z,1.33
2023-01-03T10:20:57.315Z,1.40
2023-01-03T10:23:24.279Z,0.90
2023-01-03T10:25:52.302Z,0.75
2023-01-03T10:28:24.813Z,0.70
2023-01-03T10:31:07.314Z,1.02
2023-01-03T10:33:49.529Z,0.77
2023-01-03T10:36:18.816Z,0.77
2023-01-03T10:38:52.437Z,1.00
2023-01-03T10:41:45.070Z,1.02
2023-01-03T10:44:26.696Z,0.80
2023-01-03T10:46:56.735Z,0.90
2023-01-03T10:49:29.263Z,0.80
2023-01-03T10:52:00.986Z,0.80
2023-01-03T10:54:54.806Z,1.02
2023-01-03T10:57:46.609Z,0.90
2023-01-03T11:00:28.464Z,1.00
2023-01-03T11:03:02.500Z,1.20
2023-01-03T11:05:29.332Z,1.55
2023-01-03T11:07:59.865Z,1.50
2023-01-03T11:10:48.893Z,1.40
2023-01-03T11:13:37.080Z,1.17
2023-01-03T11:16:13.005Z,1.58
2023-01-03T11:18:42.241Z,1.50
2023-01-03T11:21:13.918Z,1.40
2023-01-03T11:23:59.478Z,1.23
2023-01-03T11:26:45.422Z,1.10
2023-01-03T11:29:27.331Z,1.45
2023-01-03T11:32:23.689Z,1.40
2023-01-03T11:35:36.996Z,1.35
2023-01-03T11:38:31.724Z,1.73
2023-01-03T11:41:04.668Z,1.52
2023-01-03T11:43:59.242Z,1.40
2023-01-03T11:46:28.904Z,1.20
2023-01-03T11:49:13.227Z,1.35
2023-01-03T11:51:58.699Z,1.40
2023-01-03T11:54:53.104Z,1.13
2023-01-03T11:57:32.139Z,1.58
2023-01-03T12:00:25.027Z,1.40
2023-01-03T12:03:21.627Z,1.48
2023-01-03T12:06:13.602Z,1.92
2023-01-03T12:09:06.661Z,1.60
2023-01-03T12:11:39.471Z,1.30
2023-01-03T12:14:23.090Z,1.45
2023-01-03T12:17:05.266Z,1.58
2023-01-03T12:19:49.510Z,1.60
2023-01-03T12:22:40.431Z,1.30
2023-01-03T12:25:25.133Z,1.98
2023-01-03T12:27:59.562Z,1.58
2023-01-03T12:30:35.343Z,1.52
2023-01-03T12:33:33.793Z,1.58
2023-01-03T12:36:15.383Z,1.40
2023-01-03T12:38:50.814Z,1.52
2023-01-03T12:41:39.148Z,1.50
2023-01-03T12:44:18.299Z,1.80
2023-01-03T12:46:50.165Z,2.50
2023-01-03T12:49:19.725Z,1.75
2023-01-03T12:51:46.503Z,1.40
2023-01-03T12:54:28.743Z,1.35
2023-01-03T12:57:07.863Z,1.33
2023-01-03T12:59:50.525Z,2.08
2023-01-03T13:02:30.972Z,1.85
2023-01-03T13:05:20.017Z,1.40
2023-01-03T13:07:59.721Z,1.55
2023-01-03T13:10:31.108Z,1.30
2023-01-03T13:13:01.161Z,1.30
2023-01-03T13:15:36.104Z,1.23
2023-01-03T13:18:29.980Z,1.42
2023-01-03T13:20:57.016Z,1.60
2023-01-03T13:23:41.597Z,1.75
2023-01-03T13:26:19.676Z,1.65
2023-01-03T13:28:46.552Z,1.90
2023-01-03T13:31:18.904Z,1.50
2023-01-03T13:33:48.890Z,1.38
2023-01-03T13:36:18.709Z,1.25
2023-01-03T13:38:46.010Z,1.77
2023-01-03T13:41:39.619Z,1.65
2023-01-03T13:44:24.832Z,1.60
2023-01-03T13:46:52.455Z,1.55
2023-01-03T13:49:28.022Z,1.95
2023-01-03T13:51:57.127Z,1.60
2023-01-03T13:54:57.204Z,1.40
2023-01-03T13:57:50.411Z,1.25
2023-01-03T14:00:22.101Z,1.50
2023-01-03T14:03:09.569Z,1.30
2023-01-03T14:05:56.877Z,1.70
2023-01-03T14:09:05.531Z,1.60
2023-01-03T14:11:53.481Z,1.90
2023-01-03T14:14:24.273Z,1.80
2023-01-03T14:16:58.079Z,1.70
2023-01-03T14:19:30.581Z,1.73
2023-01-03T14:22:28.846Z,1.50
2023-01-03T14:24:58.071Z,1.65
2023-01-03T14:27:32.025Z,1.98
2023-01-03T14:29:58.897Z,1.40
2023-01-03T14:32:34.644Z,1.63
2023-01-03T14:35:02.668Z,1.63
2023-01-03T14:37:30.314Z,1.65
2023-01-03T14:39:59.958Z,1.50
2023-01-03T14:42:27.768Z,2.00
2023-01-03T14:45:02.116Z,1.85
2023-01-03T14:47:34.373Z,1.80
2023-01-03T14:50:02.456Z,1.60
2023-01-03T14:52:35.073Z,1.50
2023-01-03T14:55:07.627Z,1.83
2023-01-03T14:57:38.982Z,1.50
2023-01-03T15:00:08.568Z,1.33
2023-01-03T15:02:41.164Z,1.02
2023-01-03T15:05:28.670Z,1.40
2023-01-03T15:08:07.293Z,1.52
2023-01-03T15:10:42.384Z,1.83
2023-01-03T15:13:25.925Z,1.60
2023-01-03T15:15:58.625Z,1.13
2023-01-03T15:18:28.148Z,1.10
2023-01-03T15:20:57.210Z,1.00
2023-01-03T15:23:36.650Z,1.00
2023-01-03T15:26:05.634Z,0.90
2023-01-03T15:28:38.519Z,0.88
2023-01-03T15:31:24.137Z,0.80
2023-01-03T15:34:14.440Z,0.80
2023-01-03T15:36:45.831Z,0.70
2023-01-03T15:39:22.323Z,0.90
2023-01-03T15:44:54.986Z,0.90
2023-01-03T15:47:28.748Z,1.23
2023-01-03T15:49:59.652Z,1.38
2023-01-03T15:52:26.782Z,1.92
2023-01-03T15:54:53.645Z,0.90
2023-01-03T15:57:22.943Z,1.10
2023-01-03T15:59:55.702Z,1.58
2023-01-03T16:02:26.136Z,1.20
2023-01-03T16:04:54.170Z,1.40
2023-01-03T16:07:21.176Z,1.33
2023-01-03T16:09:48.293Z,1.10
2023-01-03T16:12:18.745Z,1.38
2023-01-03T16:14:48.106Z,1.20
2023-01-03T16:17:24.660Z,1.10
2023-01-03T16:19:52.885Z,1.00
2023-01-03T16:22:37.084Z,1.27
2023-01-03T16:25:06.195Z,1.00
2023-01-03T16:27:33.169Z,1.35
2023-01-03T16:30:00.028Z,1.50
2023-01-03T16:32:29.622Z,1.42
2023-01-03T16:35:01.890Z,1.40
2023-01-03T16:37:29.183Z,1.38
2023-01-03T16:39:56.260Z,2.00
2023-01-03T16:42:27.602Z,1.63
2023-01-03T16:44:55.212Z,1.80
2023-01-03T16:47:24.486Z,2.05
2023-01-03T16:49:57.594Z,2.45
2023-01-03T16:52:32.395Z,2.05
2023-01-03T16:55:22.155Z,2.17
2023-01-03T16:57:54.137Z,1.77
2023-01-03T17:00:24.257Z,2.08
2023-01-03T17:02:51.391Z,2.25
2023-01-03T17:05:18.886Z,2.47
2023-01-03T17:07:47.399Z,2.30
2023-01-03T17:10:29.163Z,2.47
2023-01-03T17:12:57.354Z,2.47
2023-01-03T17:15:24.299Z,2.60
2023-01-03T17:17:51.083Z,2.22
2023-01-03T17:20:19.495Z,2.88
2023-01-03T17:22:59.220Z,2.50
2023-01-03T17:25:26.436Z,2.38
2023-01-03T17:27:56.548Z,2.17
2023-01-03T17:30:26.214Z,1.70
2023-01-03T17:32:53.232Z,1.73
2023-01-03T17:35:20.115Z,2.00
2023-01-03T17:40:34.746Z,1.95
2023-01-03T17:43:02.638Z,1.98
2023-01-03T17:45:48.485Z,1.60
2023-01-03T17:48:33.935Z,1.65
2023-01-03T17:51:03.654Z,1.80
2023-01-03T17:53:30.674Z,2.03
2023-01-03T17:55:57.549Z,1.38
2023-01-03T17:58:31.143Z,1.65
2023-01-03T18:00:58.411Z,1.50
2023-01-03T18:03:25.366Z,1.10
2023-01-03T18:05:53.488Z,1.42
2023-01-03T18:08:22.913Z,1.50
2023-01-03T18:10:53.443Z,1.88
2023-01-03T18:13:20.284Z,2.42
2023-01-03T18:15:47.393Z,3.08
2023-01-03T18:18:19.216Z,2.55
2023-01-03T18:20:46.492Z,1.88
2023-01-03T18:23:17.888Z,2.00
2023-01-03T18:25:45.546Z,1.50
2023-01-03T18:28:14.462Z,1.20
2023-01-03T18:30:41.381Z,1.30
2023-01-03T18:33:08.217Z,1.17
2023-01-03T18:35:38.109Z,1.60
2023-01-03T18:38:05.854Z,1.33
2023-01-03T18:40:32.847Z,1.38
2023-01-03T18:43:13.863Z,1.25
2023-01-03T18:45:42.536Z,1.10
2023-01-03T18:48:15.357Z,1.10
2023-01-03T18:50:43.196Z,1.20
2023-01-03T18:53:16.267Z,1.15
2023-01-03T18:55:43.563Z,1.40
2023-01-03T18:58:37.057Z,1.00
2023-01-03T19:01:05.751Z,1.23
2023-01-03T19:03:34.841Z,1.20
2023-01-03T19:06:03.109Z,1.20
2023-01-03T19:08:33.064Z,1.45
2023-01-03T19:11:12.977Z,1.42
2023-01-03T19:13:50.537Z,0.93
2023-01-03T19:16:20.279Z,1.00
2023-01-03T19:18:47.455Z,0.77
2023-01-03T19:21:15.097Z,1.15
2023-01-03T19:23:43.548Z,0.90
2023-01-03T19:26:25.394Z,0.70
2023-01-03T19:28:56.554Z,0.73
2023-01-03T19:31:25.995Z,0.80
2023-01-03T19:33:53.659Z,1.02
2023-01-03T19:36:22.319Z,0.98
2023-01-03T19:38:50.313Z,1.17
2023-01-03T19:41:20.268Z,1.10
2023-01-03T19:43:47.617Z,0.80
2023-01-03T19:46:16.778Z,0.73
2023-01-03T19:48:44.877Z,0.80
2023-01-03T19:51:12.660Z,0.68
2023-01-03T19:53:40.031Z,0.80
2023-01-03T19:56:22.668Z,0.70
2023-01-03T19:58:49.839Z,0.60
2023-01-03T20:01:18.308Z,0.47
2023-01-03T20:03:45.678Z,0.70
2023-01-03T20:06:15.546Z,0.70
2023-01-03T20:08:42.418Z,0.52
2023-01-03T20:11:21.694Z,0.60
2023-01-03T20:13:49.605Z,0.60
2023-01-03T20:16:17.727Z,0.50
2023-01-03T20:18:44.826Z,0.43
2023-01-03T20:21:22.152Z,0.60
2023-01-03T20:23:56.541Z,0.60
2023-01-03T20:26:29.110Z,0.50
2023-01-03T20:28:57.447Z,0.60
2023-01-03T20:31:25.246Z,0.50
2023-01-03T20:33:52.439Z,0.57
2023-01-03T20:36:23.900Z,0.38
2023-01-03T20:38:53.452Z,0.40
2023-01-03T20:41:20.487Z,0.40
2023-01-03T20:43:50.220Z,0.45
2023-01-03T20:46:20.618Z,0.50
2023-01-03T20:48:56.271Z,0.50
2023-01-03T20:51:26.884Z,0.60
2023-01-03T20:53:55.316Z,0.80
2023-01-03T20:56:23.241Z,1.23
2023-01-03T20:58:50.155Z,0.90
2023-01-03T21:01:17.283Z,0.70
2023-01-03T21:03:44.725Z,1.20
2023-01-03T21:06:17.897Z,0.90
2023-01-03T21:08:56.941Z,1.10
2023-01-03T21:11:32.581Z,0.75
2023-01-03T21:14:00.853Z,0.80
2023-01-03T21:16:32.244Z,0.70
2023-01-03T21:19:15.323Z,1.10
2023-01-03T21:21:49.095Z,1.48
2023-01-03T21:24:18.786Z,1.17
2023-01-03T21:26:45.610Z,1.00
2023-01-03T21:29:12.725Z,1.00
2023-01-03T21:31:42.589Z,1.10
2023-01-03T21:34:21.261Z,1.05
2023-01-03T21:36:48.910Z,0.90
2023-01-03T21:39:16.198Z,0.70
2023-01-03T21:42:01.694Z,0.60
2023-01-03T21:44:28.659Z,0.50
2023-01-03T21:46:55.655Z,0.65
2023-01-03T21:49:22.520Z,1.42
2023-01-03T21:51:49.526Z,1.15
2023-01-03T21:54:16.671Z,1.00
2023-01-03T21:56:47.098Z,1.33
2023-01-03T21:59:15.914Z,1.40
2023-01-03T22:02:05.549Z,1.42
2023-01-03T22:04:32.932Z,1.27
2023-01-03T22:07:03.054Z,1.35
2023-01-03T22:09:50.225Z,1.58
2023-01-03T22:12:18.747Z,1.10
2023-01-03T22:14:46.574Z,1.20
2023-01-03T22:17:13.824Z,1.27
2023-01-03T22:19:40.644Z,1.23
2023-01-03T22:22:07.513Z,1.33
2023-01-03T22:24:34.341Z,1.10
2023-01-03T22:27:01.083Z,1.55
2023-01-03T22:29:27.903Z,0.93
2023-01-03T22:31:54.851Z,1.23
2023-01-03T22:34:21.937Z,0.85
2023-01-03T22:36:48.750Z,1.48
2023-01-03T22:39:15.544Z,1.20
2023-01-03T22:41:42.387Z,0.90
2023-01-03T22:44:10.205Z,1.27
2023-01-03T22:46:36.995Z,1.25
2023-01-03T22:49:03.898Z,1.20
2023-01-03T22:51:30.657Z,1.33
2023-01-03T22:53:57.694Z,1.42
2023-01-03T22:56:24.539Z,1.35
2023-01-03T22:58:51.344Z,1.70
2023-01-03T23:01:22.912Z,1.95
2023-01-03T23:03:49.987Z,1.75
2023-01-03T23:06:19.701Z,1.70
2023-01-03T23:08:51.402Z,1.50
2023-01-03T23:11:39.147Z,2.17
2023-01-03T23:14:14.881Z,2.20
2023-01-03T23:16:42.300Z,1.55
2023-01-03T23:19:12.914Z,1.58
2023-01-03T23:21:40.176Z,1.67
2023-01-03T23:24:11.742Z,2.00
2023-01-03T23:26:38.509Z,2.10
2023-01-03T23:29:05.460Z,1.92
2023-01-03T23:31:32.314Z,2.38
2023-01-03T23:34:00.329Z,2.70
2023-01-03T23:36:28.359Z,2.47
2023-01-03T23:38:55.940Z,2.13
2023-01-03T23:41:22.977Z,2.00
2023-01-03T23:43:50.646Z,1.92
2023-01-03T23:46:20.173Z,2.17
2023-01-03T23:48:47.571Z,1.85
2023-01-03T23:51:14.796Z,1.90
2023-01-03T23:53:43.344Z,1.90
2023-01-03T23:56:14.233Z,2.03
2023-01-03T23:58:41.324Z,1.88
